Portada
METAR-TAF:

METAR-TAF

Aeropuertos :

Aeropuerto Internacional de Bamako-Modibo Keïta

Bamako, Malí

latitud: 12-32N, longitud: 007-57W, altitud: 380 m

Observación

El informe se hizo hace 24 minutos, a las 01:00 UTC
Viento 5 kt del noroeste
Temperatura 21°C
Humedad 49%
Presión 1014 hPa
Visibilidad: 8000 m

METAR: GABS 070100Z 32005KT 8000 NSC 21/10 Q1014 NOSIG

Hora: 01:24 (01:24 UTC)

Pronóstico

El informe se hizo hace 2 horas y 24 minutos, a las 23:00 UTC
Pronóstico válido del 07 a las 00 UTC al 08 a las 06 UTC
Viento 4 kt con dirección variable
Visibilidad: 8000 m

TAF: GABS 062300Z 0700/0806 VRB04KT 8000 NSC

Observaciones y pronósticos meteorológicos de más de 4000 aeropuertos (mensajes METAR y TAF).

Los puntos amarillos y rojos representan las estaciones disponibles.

Ponga el ratón en el punto deseado para ver el nombre de la estación.

Haga clic para ver las observaciones y los pronósticos meteorológicos.

Para cambiar el mapa : haga clic en los botones verdes con una cruz de color negro para hacer un zoom, en el botón verde con un guión para alejar o en las flechas verdes para mapas adyacentes.


METAR-TAF: